Terminal Aerodrome Forecast
Issued by NWS Jackson, MS

Home | Current Version | Previous Version | Text Only | Print | Product List | Glossary On
Versions: 1 2 3 4 5 6 7 8 9 10 11 12 13 14 15 16 17 18 19 20 21 22 23 24 25 26
169
FTUS44 KJAN 242330
TAFHBG
TAF
KHBG 242330Z 2500/2524 25003KT P6SM VCSH BKN100
     FM250400 00000KT 6SM BR BKN050
     FM251100 00000KT 5SM BR OVC015
     FM251300 27003KT P6SM BKN025
     FM251500 29005KT P6SM BKN035
     FM251700 30004KT P6SM VCTS BKN050CB=

USA.gov is the U.S. government's official web portal to all federal, state and local government web resources and services.